Аэропорт: Хабаровск-Новый. Хабаровск

ICAO: UHHH

METAR:
2018/09/23 11:00
UHHH 231100Z VRB01MPS 7000 NSC 10/09 Q1014 R23L/090060 NOSIG RMK QFE754/1005
METAR:
2018/09/23 09:24
TAF TAF UHHH 230745Z 2309/2415 32003MPS 9999 SCT020CB 
      TEMPO 2309/2313 3100 -SHRA SCT008 SCT020CB 
     FM231700 05003MPS 2000 -SHRA BR SCT006 SCT015CB 
      TEMPO 2317/2324 VRB01MPS 0400 FG VV002 
     FM240100 02003MPS 9999 SCT008 SCT020CB 
      TEMPO 2401/2408 2000 SHRA SCT006 BKN015CB